createdAt,value
2023-01-22T00:02:12.645Z,67.46
2023-01-22T00:04:40.802Z,67.41
2023-01-22T00:07:08.923Z,67.35
2023-01-22T00:09:56.132Z,67.70
2023-01-22T00:12:24.157Z,67.42
2023-01-22T00:14:52.815Z,67.38
2023-01-22T00:17:26.845Z,67.58
2023-01-22T00:19:55.037Z,67.54
2023-01-22T00:22:42.019Z,67.53
2023-01-22T00:25:12.353Z,67.58
2023-01-22T00:27:41.897Z,67.41
2023-01-22T00:30:10.945Z,67.57
2023-01-22T00:32:39.070Z,67.40
2023-01-22T00:35:07.397Z,67.42
2023-01-22T00:37:35.881Z,67.45
2023-01-22T00:40:09.976Z,67.44
2023-01-22T00:42:39.737Z,67.57
2023-01-22T00:45:08.696Z,67.46
2023-01-22T00:47:36.921Z,67.63
2023-01-22T00:50:06.172Z,67.52
2023-01-22T00:52:35.050Z,67.47
2023-01-22T00:55:04.731Z,67.57
2023-01-22T00:57:33.350Z,67.64
2023-01-22T01:00:01.437Z,67.63
2023-01-22T01:02:31.380Z,67.52
2023-01-22T01:05:02.074Z,67.46
2023-01-22T01:07:30.152Z,67.58
2023-01-22T01:09:58.357Z,67.42
2023-01-22T01:12:26.991Z,67.51
2023-01-22T01:14:56.481Z,67.56
2023-01-22T01:17:24.826Z,67.60
2023-01-22T01:19:53.357Z,67.56
2023-01-22T01:22:21.482Z,67.56
2023-01-22T01:24:49.526Z,67.58
2023-01-22T01:27:17.967Z,67.51
2023-01-22T01:29:46.138Z,67.58
2023-01-22T01:32:14.194Z,67.68
2023-01-22T01:34:42.499Z,67.86
2023-01-22T01:37:12.421Z,67.77
2023-01-22T01:39:40.460Z,67.78
2023-01-22T01:42:09.468Z,67.73
2023-01-22T01:44:38.060Z,67.84
2023-01-22T01:47:22.518Z,67.84
2023-01-22T01:49:53.516Z,67.74
2023-01-22T01:52:21.661Z,67.84
2023-01-22T01:54:53.374Z,67.85
2023-01-22T01:57:31.629Z,67.77
2023-01-22T02:00:05.097Z,67.91
2023-01-22T02:02:41.811Z,67.91
2023-01-22T02:05:10.565Z,67.81
2023-01-22T02:07:38.755Z,67.77
2023-01-22T02:10:25.962Z,67.79
2023-01-22T02:13:19.247Z,67.84
2023-01-22T02:15:48.667Z,67.95
2023-01-22T02:18:16.905Z,67.87
2023-01-22T02:20:57.088Z,67.99
2023-01-22T02:23:28.459Z,68.08
2023-01-22T02:25:58.341Z,67.93
2023-01-22T02:28:27.041Z,67.88
2023-01-22T02:31:15.032Z,67.91
2023-01-22T02:34:02.934Z,67.93
2023-01-22T02:36:37.699Z,67.97
2023-01-22T02:39:07.098Z,67.95
2023-01-22T02:41:53.936Z,67.79
2023-01-22T02:44:22.658Z,67.96
2023-01-22T02:46:50.821Z,68.00
2023-01-22T02:49:37.997Z,67.90
2023-01-22T02:52:08.260Z,67.99
2023-01-22T02:54:36.752Z,68.01
2023-01-22T02:57:31.273Z,67.85
2023-01-22T02:59:59.393Z,68.06
2023-01-22T03:02:27.821Z,68.08
2023-01-22T03:05:03.750Z,68.00
2023-01-22T03:07:42.747Z,68.04
2023-01-22T03:10:13.955Z,68.10
2023-01-22T03:13:02.200Z,68.06
2023-01-22T03:15:49.597Z,68.02
2023-01-22T03:18:38.302Z,68.08
2023-01-22T03:21:20.349Z,68.07
2023-01-22T03:23:52.427Z,68.12
2023-01-22T03:26:22.453Z,68.11
2023-01-22T03:28:51.629Z,68.19
2023-01-22T03:31:39.374Z,68.11
2023-01-22T03:34:07.730Z,68.11
2023-01-22T03:36:35.937Z,68.03
2023-01-22T03:39:05.939Z,67.92
2023-01-22T03:41:34.411Z,68.11
2023-01-22T03:44:03.776Z,68.11
2023-01-22T03:46:35.758Z,67.96
2023-01-22T03:49:22.811Z,68.19
2023-01-22T03:51:53.798Z,68.31
2023-01-22T03:54:21.771Z,68.34
2023-01-22T03:56:50.122Z,68.11
2023-01-22T03:59:26.945Z,68.14
2023-01-22T04:02:13.683Z,67.96
2023-01-22T04:04:50.997Z,68.08
2023-01-22T04:07:19.439Z,68.15
2023-01-22T04:09:48.255Z,68.16
2023-01-22T04:12:16.732Z,68.19
2023-01-22T04:14:45.541Z,68.14
2023-01-22T04:17:13.770Z,68.18
2023-01-22T04:19:55.341Z,68.25
2023-01-22T04:22:40.419Z,68.06
2023-01-22T04:25:10.688Z,68.18
2023-01-22T04:27:39.079Z,68.19
2023-01-22T04:30:08.404Z,68.05
2023-01-22T04:32:37.264Z,68.26
2023-01-22T04:35:34.388Z,68.19
2023-01-22T04:38:10.568Z,68.20
2023-01-22T04:40:39.618Z,68.27
2023-01-22T04:43:08.604Z,68.42
2023-01-22T04:45:56.330Z,68.20
2023-01-22T04:48:29.883Z,68.41
2023-01-22T04:50:58.268Z,68.39
2023-01-22T04:53:29.434Z,68.41
2023-01-22T04:55:57.641Z,68.34
2023-01-22T04:58:27.293Z,68.51
2023-01-22T05:00:59.693Z,68.35
2023-01-22T05:03:28.522Z,68.50
2023-01-22T05:05:57.178Z,68.34
2023-01-22T05:08:25.497Z,68.45
2023-01-22T05:10:55.641Z,68.37
2023-01-22T05:13:30.204Z,68.50
2023-01-22T05:15:59.459Z,68.54
2023-01-22T05:18:27.811Z,68.26
2023-01-22T05:20:55.916Z,68.44
2023-01-22T05:23:27.362Z,68.55
2023-01-22T05:25:56.565Z,68.56
2023-01-22T05:28:36.905Z,68.34
2023-01-22T05:31:25.398Z,68.49
2023-01-22T05:34:05.500Z,68.57
2023-01-22T05:36:33.888Z,68.55
2023-01-22T05:39:07.996Z,68.67
2023-01-22T05:41:36.923Z,68.49
2023-01-22T05:44:05.540Z,68.60
2023-01-22T05:46:34.054Z,68.58
2023-01-22T05:49:45.997Z,68.45
2023-01-22T05:52:20.592Z,68.48
2023-01-22T05:54:49.280Z,68.62
2023-01-22T05:57:18.867Z,68.59
2023-01-22T05:59:46.897Z,68.71
2023-01-22T06:02:15.612Z,68.73
2023-01-22T06:04:45.331Z,68.67
2023-01-22T06:07:31.857Z,68.54
2023-01-22T06:10:00.498Z,68.58
2023-01-22T06:12:29.440Z,68.59
2023-01-22T06:14:57.729Z,68.48
2023-01-22T06:17:46.856Z,68.50
2023-01-22T06:20:16.324Z,68.29
2023-01-22T06:22:44.495Z,68.49
2023-01-22T06:25:12.731Z,68.57
2023-01-22T06:28:32.287Z,68.59
2023-01-22T06:31:20.062Z,68.62
2023-01-22T06:33:48.959Z,68.70
2023-01-22T06:36:17.361Z,68.56
2023-01-22T06:39:05.239Z,68.79
2023-01-22T06:41:42.797Z,68.74
2023-01-22T06:44:13.350Z,68.68
2023-01-22T06:46:41.405Z,68.69
2023-01-22T06:49:12.151Z,68.92
2023-01-22T06:51:42.172Z,68.77
2023-01-22T06:54:12.734Z,68.87
2023-01-22T06:56:59.957Z,68.77
2023-01-22T06:59:47.402Z,68.70
2023-01-22T07:02:17.819Z,68.65
2023-01-22T07:04:46.203Z,68.63
2023-01-22T07:07:14.935Z,68.71
2023-01-22T07:09:43.332Z,68.72
2023-01-22T07:12:11.436Z,68.75
2023-01-22T07:14:39.544Z,68.72
2023-01-22T07:17:26.512Z,68.78
2023-01-22T07:19:54.622Z,68.56
2023-01-22T07:22:22.719Z,68.57
2023-01-22T07:24:51.194Z,68.54
2023-01-22T07:27:19.215Z,68.73
2023-01-22T07:29:47.947Z,68.53
2023-01-22T07:32:21.271Z,68.65
2023-01-22T07:34:49.424Z,68.72
2023-01-22T07:37:17.774Z,68.75
2023-01-22T07:39:45.753Z,68.60
2023-01-22T07:42:14.273Z,68.66
2023-01-22T07:44:42.778Z,68.52
2023-01-22T07:47:10.912Z,68.58
2023-01-22T07:49:39.299Z,68.59
2023-01-22T07:52:25.879Z,68.49
2023-01-22T07:54:54.297Z,68.66
2023-01-22T07:57:22.321Z,68.69
2023-01-22T07:59:50.427Z,68.73
2023-01-22T08:02:18.989Z,68.51
2023-01-22T08:04:47.342Z,68.60
2023-01-22T08:07:19.550Z,68.81
2023-01-22T08:09:47.785Z,68.74
2023-01-22T08:12:37.478Z,68.79
2023-01-22T08:15:06.156Z,68.89
2023-01-22T08:17:34.243Z,68.90
2023-01-22T08:20:21.796Z,68.81
2023-01-22T08:22:49.774Z,69.08
2023-01-22T08:25:17.833Z,68.93
2023-01-22T08:27:46.514Z,68.76
2023-01-22T08:30:15.991Z,68.91
2023-01-22T08:32:46.030Z,68.87
2023-01-22T08:35:14.536Z,68.95
2023-01-22T08:37:45.766Z,69.04
2023-01-22T08:40:14.004Z,68.95
2023-01-22T08:42:43.572Z,68.88
2023-01-22T08:45:11.796Z,68.94
2023-01-22T08:47:39.908Z,68.68
2023-01-22T08:50:29.466Z,68.71
2023-01-22T08:52:58.011Z,68.81
2023-01-22T08:55:27.847Z,68.87
2023-01-22T08:57:57.568Z,68.95
2023-01-22T09:00:26.269Z,68.83
2023-01-22T09:02:59.946Z,68.84
2023-01-22T09:05:28.679Z,68.90
2023-01-22T09:07:56.750Z,68.89
2023-01-22T09:10:25.716Z,69.01
2023-01-22T09:12:54.175Z,68.97
2023-01-22T09:15:22.265Z,68.96
2023-01-22T09:18:09.304Z,68.92
2023-01-22T09:20:37.288Z,68.88
2023-01-22T09:23:07.995Z,69.05
2023-01-22T09:25:36.276Z,68.98
2023-01-22T09:28:07.283Z,69.04
2023-01-22T09:30:39.533Z,68.89
2023-01-22T09:33:07.843Z,69.01
2023-01-22T09:35:35.874Z,68.92
2023-01-22T09:38:06.032Z,68.97
2023-01-22T09:40:46.607Z,69.22
2023-01-22T09:43:37.421Z,69.00
2023-01-22T09:46:16.542Z,69.19
2023-01-22T09:48:48.375Z,69.01
2023-01-22T09:51:19.752Z,68.91
2023-01-22T09:53:55.466Z,68.99
2023-01-22T09:56:32.469Z,69.17
2023-01-22T09:59:03.657Z,69.25
2023-01-22T10:01:32.419Z,69.10
2023-01-22T10:04:05.568Z,69.22
2023-01-22T10:06:33.950Z,69.13
2023-01-22T10:09:08.254Z,69.08
2023-01-22T10:11:40.035Z,69.25
2023-01-22T10:14:12.732Z,69.48
2023-01-22T10:16:41.100Z,69.32
2023-01-22T10:19:21.536Z,69.18
2023-01-22T10:21:55.829Z,69.18
2023-01-22T10:24:24.134Z,69.31
2023-01-22T10:26:54.607Z,69.20
2023-01-22T10:29:31.139Z,69.18
2023-01-22T10:32:02.365Z,69.20
2023-01-22T10:34:35.254Z,69.25
2023-01-22T10:37:14.692Z,69.07
2023-01-22T10:39:45.538Z,69.22
2023-01-22T10:42:23.145Z,69.25
2023-01-22T10:59:50.336Z,69.28
2023-01-22T11:02:22.962Z,69.21
2023-01-22T11:04:52.190Z,69.16
2023-01-22T11:07:32.582Z,69.17
2023-01-22T11:10:31.740Z,69.29
2023-01-22T11:13:29.110Z,69.05
2023-01-22T11:15:57.596Z,69.09
2023-01-22T11:18:39.449Z,69.28
2023-01-22T11:21:18.414Z,69.26
2023-01-22T11:24:15.800Z,69.18
2023-01-22T11:26:59.546Z,69.27
2023-01-22T11:29:49.118Z,69.25
2023-01-22T11:32:46.123Z,69.33
2023-01-22T11:35:34.305Z,69.21
2023-01-22T11:38:44.561Z,69.23
2023-01-22T11:42:00.530Z,69.12
2023-01-22T11:45:09.859Z,69.33
2023-01-22T11:47:54.841Z,69.48
2023-01-22T11:50:52.240Z,69.22
2023-01-22T11:53:30.274Z,69.25
2023-01-22T11:56:17.027Z,69.10
2023-01-22T11:59:18.990Z,69.03
2023-01-22T12:02:13.381Z,69.06
2023-01-22T12:05:02.904Z,69.28
2023-01-22T12:07:57.533Z,69.35
2023-01-22T12:10:55.901Z,69.40
2023-01-22T12:13:47.404Z,69.32
2023-01-22T12:16:34.361Z,69.37
2023-01-22T12:19:27.046Z,69.28
2023-01-22T12:21:55.039Z,69.19
2023-01-22T12:25:02.735Z,69.31
2023-01-22T12:28:15.922Z,69.28
2023-01-22T12:30:58.373Z,69.35
2023-01-22T12:33:39.141Z,69.33
2023-01-22T12:36:10.507Z,69.30
2023-01-22T12:39:03.593Z,69.24
2023-01-22T12:41:58.761Z,69.28
2023-01-22T12:44:49.639Z,69.31
2023-01-22T12:47:40.840Z,69.20
2023-01-22T12:50:19.838Z,69.22
2023-01-22T12:53:03.285Z,69.37
2023-01-22T12:55:43.933Z,69.41
2023-01-22T12:58:23.740Z,69.48
2023-01-22T13:01:05.581Z,69.50
2023-01-22T13:03:35.696Z,69.32
2023-01-22T13:06:18.950Z,69.48
2023-01-22T13:08:47.249Z,69.42
2023-01-22T13:11:34.049Z,69.51
2023-01-22T13:14:28.254Z,69.17
2023-01-22T13:17:17.004Z,69.42
2023-01-22T13:19:48.131Z,69.43
2023-01-22T13:22:25.781Z,69.53
2023-01-22T13:24:57.026Z,69.44
2023-01-22T13:27:46.989Z,69.55
2023-01-22T13:30:27.697Z,69.52
2023-01-22T13:33:14.548Z,69.46
2023-01-22T13:36:15.831Z,69.50
2023-01-22T13:38:55.520Z,69.52
2023-01-22T13:41:37.007Z,69.43
2023-01-22T13:44:07.577Z,69.63
2023-01-22T13:46:38.909Z,69.49
2023-01-22T13:49:20.156Z,69.67
2023-01-22T13:52:14.055Z,69.62
2023-01-22T13:54:52.848Z,69.68
2023-01-22T13:57:22.609Z,69.79
2023-01-22T13:59:59.519Z,69.68
2023-01-22T14:02:31.184Z,69.57
2023-01-22T14:04:59.859Z,69.69
2023-01-22T14:07:34.843Z,69.61
2023-01-22T14:10:12.477Z,69.48
2023-01-22T14:12:41.063Z,69.56
2023-01-22T14:15:20.933Z,69.77
2023-01-22T14:17:50.621Z,69.67
2023-01-22T14:20:42.343Z,69.67
2023-01-22T14:23:10.900Z,69.78
2023-01-22T14:25:45.586Z,69.61
2023-01-22T14:28:14.104Z,69.76
2023-01-22T14:30:42.645Z,69.64
2023-01-22T14:33:20.522Z,69.66
2023-01-22T14:36:13.036Z,69.72
2023-01-22T14:38:41.315Z,69.80
2023-01-22T14:41:09.500Z,69.75
2023-01-22T14:43:37.705Z,69.67
2023-01-22T14:46:24.407Z,69.51
2023-01-22T14:48:52.460Z,69.38
2023-01-22T14:51:20.536Z,69.53
2023-01-22T14:53:48.930Z,69.60
2023-01-22T14:56:16.929Z,69.61
2023-01-22T14:58:45.017Z,69.46
2023-01-22T15:01:18.761Z,69.54
2023-01-22T15:03:47.131Z,69.56
2023-01-22T15:06:15.351Z,69.69
2023-01-22T15:08:43.526Z,69.82
2023-01-22T15:11:12.060Z,69.75
2023-01-22T15:13:40.236Z,69.80
2023-01-22T15:16:11.316Z,69.48
2023-01-22T15:18:39.919Z,69.49
2023-01-22T15:21:08.217Z,69.59
2023-01-22T15:23:36.899Z,69.51
2023-01-22T15:26:10.393Z,69.75
2023-01-22T15:28:39.012Z,69.58
2023-01-22T15:31:10.024Z,69.67
2023-01-22T15:33:38.480Z,69.50
2023-01-22T15:36:07.557Z,69.56
2023-01-22T15:38:54.311Z,69.47
2023-01-22T15:41:25.151Z,69.53
2023-01-22T15:43:55.465Z,69.54
2023-01-22T15:46:25.585Z,69.47
2023-01-22T15:48:54.559Z,69.68
2023-01-22T15:51:23.136Z,69.64
2023-01-22T15:53:54.196Z,69.44
2023-01-22T15:56:24.767Z,69.53
2023-01-22T15:58:53.612Z,69.74
2023-01-22T16:01:22.766Z,69.71
2023-01-22T16:03:51.306Z,69.61
2023-01-22T16:06:24.052Z,69.49
2023-01-22T16:08:54.274Z,69.27
2023-01-22T16:11:22.661Z,69.52
2023-01-22T16:13:51.355Z,69.52
2023-01-22T16:16:24.121Z,69.60
2023-01-22T16:18:55.350Z,69.66
2023-01-22T16:21:23.502Z,69.55
2023-01-22T16:23:57.099Z,69.54
2023-01-22T16:26:28.661Z,69.20
2023-01-22T16:28:58.425Z,69.28
2023-01-22T16:31:29.322Z,69.32
2023-01-22T16:34:00.150Z,69.30
2023-01-22T16:36:32.971Z,69.32
2023-01-22T16:39:01.338Z,69.22
2023-01-22T16:41:32.795Z,69.18
2023-01-22T16:44:10.039Z,69.26
2023-01-22T16:46:41.209Z,69.20
2023-01-22T16:49:26.760Z,69.17
2023-01-22T16:51:57.394Z,69.05
2023-01-22T16:54:31.827Z,69.21
2023-01-22T16:57:03.841Z,69.25
2023-01-22T16:59:33.757Z,69.21
2023-01-22T17:02:03.884Z,69.06
2023-01-22T17:04:32.447Z,68.82
2023-01-22T17:07:00.907Z,68.66
2023-01-22T17:09:32.421Z,68.70
2023-01-22T17:12:19.929Z,68.83
2023-01-22T17:14:52.946Z,68.74
2023-01-22T17:17:45.079Z,68.61
2023-01-22T17:20:31.732Z,68.39
2023-01-22T17:23:00.236Z,68.09
2023-01-22T17:25:28.597Z,68.03
2023-01-22T17:28:16.390Z,68.21
2023-01-22T17:30:44.783Z,68.23
2023-01-22T17:33:34.049Z,68.00
2023-01-22T17:36:04.030Z,67.91
2023-01-22T17:38:36.411Z,67.86
2023-01-22T17:41:25.443Z,67.91
2023-01-22T17:43:56.273Z,67.76
2023-01-22T17:46:29.278Z,67.69
2023-01-22T17:48:58.842Z,67.70
2023-01-22T17:51:46.379Z,67.49
2023-01-22T17:54:14.473Z,67.62
2023-01-22T17:56:46.075Z,67.34
2023-01-22T17:59:15.357Z,67.32
2023-01-22T18:01:45.211Z,67.30
2023-01-22T18:04:35.064Z,67.20
2023-01-22T18:07:05.205Z,67.14
2023-01-22T18:09:33.430Z,67.22
2023-01-22T18:12:03.139Z,67.11
2023-01-22T18:14:34.189Z,67.13
2023-01-22T18:17:02.809Z,66.91
2023-01-22T18:19:31.497Z,66.87
2023-01-22T18:22:00.076Z,66.64
2023-01-22T18:24:31.239Z,66.76
2023-01-22T18:26:59.639Z,66.61
2023-01-22T18:29:28.337Z,66.70
2023-01-22T18:31:57.130Z,66.73
2023-01-22T18:34:26.149Z,66.64
2023-01-22T18:36:54.279Z,66.55
2023-01-22T18:39:43.248Z,66.65
2023-01-22T18:42:11.500Z,66.69
2023-01-22T18:44:39.556Z,66.46
2023-01-22T18:47:15.565Z,66.56
2023-01-22T18:49:51.593Z,66.64
2023-01-22T18:52:40.776Z,66.61
2023-01-22T18:55:09.681Z,66.65
2023-01-22T18:58:27.616Z,66.70
2023-01-22T19:00:59.378Z,66.49
2023-01-22T19:03:28.588Z,66.50
2023-01-22T19:05:57.119Z,66.55
2023-01-22T19:08:26.250Z,66.56
2023-01-22T19:10:59.248Z,66.50
2023-01-22T19:13:27.703Z,66.62
2023-01-22T19:15:55.829Z,66.43
2023-01-22T19:18:24.082Z,66.31
2023-01-22T19:21:19.409Z,66.52
2023-01-22T19:24:10.176Z,66.15
2023-01-22T19:26:39.249Z,66.18
2023-01-22T19:29:11.455Z,66.05
2023-01-22T19:31:43.497Z,66.21
2023-01-22T19:34:14.010Z,66.09
2023-01-22T19:36:42.403Z,66.06
2023-01-22T19:39:12.714Z,66.08
2023-01-22T19:42:05.234Z,66.11
2023-01-22T19:44:34.575Z,66.09
2023-01-22T19:47:03.792Z,66.16
2023-01-22T19:49:32.859Z,66.25
2023-01-22T19:52:00.940Z,66.09
2023-01-22T19:54:29.397Z,66.11
2023-01-22T19:57:02.636Z,66.37
2023-01-22T19:59:31.528Z,65.87
2023-01-22T20:02:20.917Z,66.03
2023-01-22T20:04:51.346Z,66.01
2023-01-22T20:07:20.600Z,65.91
2023-01-22T20:09:48.761Z,65.71
2023-01-22T20:12:17.560Z,65.71
2023-01-22T20:15:04.837Z,65.83
2023-01-22T20:17:34.104Z,66.00
2023-01-22T20:20:02.463Z,65.99
2023-01-22T20:22:31.078Z,65.77
2023-01-22T20:24:59.200Z,65.92
2023-01-22T20:27:27.442Z,65.96
2023-01-22T20:29:56.364Z,65.79
2023-01-22T20:32:26.321Z,65.68
2023-01-22T20:34:54.371Z,65.52
2023-01-22T20:37:24.451Z,65.35
2023-01-22T20:39:53.577Z,65.50
2023-01-22T20:42:21.616Z,65.61
2023-01-22T20:45:09.292Z,65.57
2023-01-22T20:47:41.635Z,65.39
2023-01-22T20:50:36.443Z,65.36
2023-01-22T20:53:06.448Z,65.41
2023-01-22T20:55:34.826Z,65.46
2023-01-22T20:58:02.843Z,65.46
2023-01-22T21:00:31.116Z,65.37
2023-01-22T21:03:04.620Z,65.32
2023-01-22T21:05:33.045Z,65.25
2023-01-22T21:08:02.030Z,65.31
2023-01-22T21:10:59.304Z,65.13
2023-01-22T21:13:27.676Z,65.35
2023-01-22T21:15:56.208Z,65.44
2023-01-22T21:18:24.859Z,65.41
2023-01-22T21:20:52.941Z,65.23
2023-01-22T21:23:21.046Z,65.05
2023-01-22T21:25:49.467Z,65.06
2023-01-22T21:28:37.575Z,65.15
2023-01-22T21:31:14.558Z,65.33
2023-01-22T21:33:49.011Z,65.15
2023-01-22T21:36:18.511Z,65.24
2023-01-22T21:38:47.875Z,65.09
2023-01-22T21:41:17.724Z,64.99
2023-01-22T21:44:06.094Z,64.93
2023-01-22T21:46:41.944Z,64.85
2023-01-22T21:49:20.319Z,64.80
2023-01-22T21:51:57.416Z,64.79
2023-01-22T21:54:33.865Z,64.91
2023-01-22T21:57:03.312Z,64.97
2023-01-22T21:59:50.101Z,65.01
2023-01-22T22:02:24.639Z,64.95
2023-01-22T22:04:53.091Z,64.82
2023-01-22T22:07:21.189Z,64.91
2023-01-22T22:09:49.356Z,64.95
2023-01-22T22:12:17.673Z,64.81
2023-01-22T22:14:45.718Z,64.74
2023-01-22T22:17:32.923Z,64.65
2023-01-22T22:20:20.065Z,64.77
2023-01-22T22:22:48.519Z,64.78
2023-01-22T22:25:16.573Z,64.90
2023-01-22T22:27:44.568Z,64.87
2023-01-22T22:30:13.543Z,64.60
2023-01-22T22:32:41.546Z,64.69
2023-01-22T22:35:09.992Z,64.82
2023-01-22T22:37:38.687Z,64.78
2023-01-22T22:40:08.194Z,64.57
2023-01-22T22:42:36.251Z,64.54
2023-01-22T22:45:05.207Z,64.68
2023-01-22T22:47:51.864Z,64.56
2023-01-22T22:50:20.317Z,64.82
2023-01-22T22:52:48.790Z,64.83
2023-01-22T22:55:16.772Z,64.68
2023-01-22T22:57:44.962Z,64.71
2023-01-22T23:00:13.319Z,64.80
2023-01-22T23:02:42.685Z,64.50
2023-01-22T23:05:11.041Z,64.72
2023-01-22T23:07:39.177Z,64.42
2023-01-22T23:10:07.877Z,64.55
2023-01-22T23:12:36.055Z,64.49
2023-01-22T23:15:04.703Z,64.60
2023-01-22T23:17:32.995Z,64.58
2023-01-22T23:20:20.819Z,64.47
2023-01-22T23:22:52.479Z,64.47
2023-01-22T23:25:20.712Z,64.75
2023-01-22T23:27:53.481Z,64.63
2023-01-22T23:30:21.866Z,64.83
2023-01-22T23:33:08.908Z,64.62
2023-01-22T23:35:37.895Z,64.59
2023-01-22T23:38:24.527Z,64.67
2023-01-22T23:41:05.304Z,64.57
2023-01-22T23:43:33.705Z,64.40
2023-01-22T23:46:07.045Z,64.72
2023-01-22T23:48:35.500Z,64.50
2023-01-22T23:51:04.464Z,64.55
2023-01-22T23:53:36.650Z,64.33
2023-01-22T23:56:05.034Z,64.32
2023-01-22T23:58:34.591Z,64.39
